Time;durP1;ratioP1;P1;durP2;ratioP2;P2;SDS_P1;SDS_P2;PMS_P1;PMS_P2;Temp;Humidity;BMP_temperature;BMP_pressure;BME280_temperature;BME280_humidity;BME280_pressure;Samples;Min_cycle;Max_cycle;Signal;HPM_P1;HPM_P2
2022/06/06 00:00:48;;;;;;;39.67;26.00;;;17.00;99.90;;;;;;5092379;28;20252;-53
2022/06/06 00:03:16;;;;;;;40.75;25.88;;;17.00;99.90;;;;;;5092370;28;20571;-54
2022/06/06 00:05:44;;;;;;;43.38;27.15;;;17.00;99.90;;;;;;5092337;28;20173;-53
2022/06/06 00:08:11;;;;;;;45.25;27.65;;;17.00;99.90;;;;;;5092229;28;20173;-53
2022/06/06 00:10:39;;;;;;;47.47;28.23;;;16.90;99.90;;;;;;5092435;28;20193;-54
2022/06/06 00:13:05;;;;;;;44.67;26.95;;;16.90;99.90;;;;;;5092456;28;20169;-53
2022/06/06 00:15:31;;;;;;;45.03;26.90;;;16.80;99.90;;;;;;5092585;28;20199;-53
2022/06/06 00:17:57;;;;;;;41.75;26.08;;;16.80;99.90;;;;;;5092094;28;20201;-54
2022/06/06 00:20:23;;;;;;;39.60;25.60;;;16.70;99.90;;;;;;5074297;28;20172;-53
2022/06/06 00:22:48;;;;;;;41.95;24.90;;;16.70;99.90;;;;;;5092131;28;20248;-53
2022/06/06 00:25:14;;;;;;;38.03;23.05;;;16.70;99.90;;;;;;5092345;28;20177;-53
2022/06/06 00:27:40;;;;;;;35.22;23.50;;;16.70;99.90;;;;;;5091309;28;20256;-52
2022/06/06 00:30:06;;;;;;;31.92;19.45;;;16.80;99.90;;;;;;5091996;28;20213;-55
2022/06/06 00:35:20;;;;;;;31.48;21.30;;;16.80;99.90;;;;;;5091973;28;20546;-53
2022/06/06 00:37:47;;;;;;;32.20;20.85;;;16.80;99.90;;;;;;5092199;28;20208;-53
2022/06/06 00:40:15;;;;;;;35.55;21.17;;;16.80;99.90;;;;;;5092189;28;20165;-52
2022/06/06 00:42:42;;;;;;;32.53;19.73;;;16.80;99.90;;;;;;5092150;28;20165;-52
2022/06/06 00:47:46;;;;;;;27.90;17.73;;;16.80;99.90;;;;;;5174321;23;20247;-52
2022/06/06 00:50:19;;;;;;;29.50;17.25;;;16.80;99.90;;;;;;4992063;28;20513;-55
2022/06/06 00:52:46;;;;;;;29.65;17.73;;;16.80;99.90;;;;;;4992645;28;20188;-56
2022/06/06 00:55:20;;;;;;;32.17;19.85;;;16.80;99.90;;;;;;4992543;28;20161;-55
2022/06/06 00:57:53;;;;;;;31.50;20.60;;;16.80;99.90;;;;;;4992333;28;20180;-56
2022/06/06 01:00:20;;;;;;;29.77;18.70;;;16.80;99.90;;;;;;4991875;28;20169;-56
2022/06/06 01:02:50;;;;;;;27.23;18.30;;;16.90;99.90;;;;;;4992119;28;20181;-55
2022/06/06 01:05:17;;;;;;;24.95;16.45;;;16.90;99.90;;;;;;4992643;28;20505;-55
2022/06/06 01:07:43;;;;;;;31.23;17.60;;;16.80;99.90;;;;;;4992342;28;20180;-55
2022/06/06 01:10:09;;;;;;;28.17;15.93;;;16.80;99.90;;;;;;4992245;28;20572;-56
2022/06/06 01:12:37;;;;;;;27.20;16.60;;;16.80;99.90;;;;;;4992198;28;20291;-55
2022/06/06 01:15:07;;;;;;;27.63;16.80;;;16.80;99.90;;;;;;4992247;28;20223;-55
2022/06/06 01:17:58;;;;;;;28.55;17.33;;;16.70;99.90;;;;;;4992200;28;20169;-55
2022/06/06 01:20:59;;;;;;;25.45;14.98;;;16.80;99.90;;;;;;4992485;28;20172;-55
2022/06/06 01:23:28;;;;;;;28.70;16.60;;;16.70;99.90;;;;;;4985342;28;20189;-55
2022/06/06 01:26:02;;;;;;;25.58;16.90;;;17.40;99.90;;;;;;4992302;28;20204;-55
2022/06/06 01:28:45;;;;;;;22.33;15.00;;;16.70;99.90;;;;;;4992437;28;20218;-56
2022/06/06 01:31:17;;;;;;;24.92;15.45;;;16.70;99.90;;;;;;4992007;28;20204;-56
2022/06/06 01:33:48;;;;;;;23.00;14.32;;;16.70;99.90;;;;;;4992339;28;20536;-55
2022/06/06 01:36:14;;;;;;;24.00;15.80;;;16.70;99.90;;;;;;4992068;28;20529;-55
2022/06/06 01:38:40;;;;;;;23.33;14.52;;;16.70;99.90;;;;;;4992421;28;20169;-55
2022/06/06 01:41:11;;;;;;;19.90;12.98;;;16.80;99.90;;;;;;4995422;28;20204;-55
2022/06/06 01:43:45;;;;;;;25.10;14.38;;;16.70;99.90;;;;;;4995432;28;20227;-55
2022/06/06 01:46:22;;;;;;;22.52;13.43;;;16.70;99.90;;;;;;4995361;28;20518;-55
2022/06/06 01:48:49;;;;;;;19.80;11.25;;;16.70;99.90;;;;;;4995185;28;20224;-55
2022/06/06 01:51:27;;;;;;;14.20;10.18;;;16.70;99.90;;;;;;4995250;28;20208;-55
2022/06/06 01:53:53;;;;;;;18.02;11.40;;;16.70;99.90;;;;;;4995506;28;20268;-55
2022/06/06 01:56:25;;;;;;;18.02;10.60;;;16.70;99.90;;;;;;4995236;28;20193;-56
2022/06/06 01:58:51;;;;;;;15.48;9.70;;;16.70;99.90;;;;;;4995232;28;20169;-56
2022/06/06 02:01:17;;;;;;;17.17;10.35;;;16.70;99.90;;;;;;4995072;28;20248;-55
2022/06/06 02:03:43;;;;;;;13.57;10.48;;;16.80;99.90;;;;;;4995197;28;20172;-55
2022/06/06 02:06:09;;;;;;;13.15;10.00;;;16.70;99.90;;;;;;4994989;28;20653;-55
2022/06/06 02:08:35;;;;;;;15.45;9.15;;;16.70;99.90;;;;;;4994998;28;20212;-55
2022/06/06 02:11:01;;;;;;;13.02;9.40;;;16.70;99.90;;;;;;4994863;28;20238;-55
2022/06/06 02:13:27;;;;;;;15.35;9.55;;;16.70;99.90;;;;;;4995337;28;20604;-55
2022/06/06 02:15:53;;;;;;;14.05;8.73;;;16.00;99.90;;;;;;4994779;28;20172;-55
2022/06/06 02:18:19;;;;;;;11.68;8.82;;;16.70;99.90;;;;;;4994799;28;20210;-55
2022/06/06 02:20:44;;;;;;;14.77;9.23;;;16.70;99.90;;;;;;4995003;28;20173;-55
2022/06/06 02:23:12;;;;;;;13.77;9.32;;;16.70;99.90;;;;;;4994773;28;20259;-56
2022/06/06 02:25:38;;;;;;;11.77;9.02;;;16.70;99.90;;;;;;4994976;28;20176;-55
2022/06/06 02:28:04;;;;;;;14.52;9.00;;;16.80;99.90;;;;;;4994687;28;20537;-55
2022/06/06 02:30:33;;;;;;;13.32;9.25;;;16.70;99.90;;;;;;4994490;28;20585;-55
2022/06/06 02:32:59;;;;;;;18.55;9.60;;;16.70;99.90;;;;;;4994617;28;20176;-55
2022/06/06 02:35:28;;;;;;;14.95;10.07;;;16.70;99.90;;;;;;4977361;28;20227;-55
2022/06/06 02:37:56;;;;;;;13.85;9.10;;;16.70;99.90;;;;;;4977206;28;20672;-56
2022/06/06 02:40:22;;;;;;;15.02;10.40;;;16.70;99.90;;;;;;4994802;28;20231;-56
2022/06/06 02:42:48;;;;;;;11.95;9.13;;;16.70;99.90;;;;;;4994416;28;20177;-55
2022/06/06 02:45:15;;;;;;;14.95;9.80;;;16.70;99.90;;;;;;4994248;28;20183;-55
2022/06/06 02:47:42;;;;;;;16.42;9.30;;;16.60;99.90;;;;;;4994214;28;20230;-55
2022/06/06 02:50:09;;;;;;;15.00;10.20;;;16.60;99.90;;;;;;4976467;28;20169;-55
2022/06/06 02:52:35;;;;;;;12.50;9.45;;;16.60;99.90;;;;;;4993624;28;20205;-55
2022/06/06 02:55:01;;;;;;;12.43;8.38;;;16.60;99.90;;;;;;4994259;28;20223;-55
2022/06/06 02:57:27;;;;;;;13.30;9.73;;;16.60;99.90;;;;;;4994392;28;20625;-55
2022/06/06 02:59:57;;;;;;;12.40;9.95;;;16.60;99.90;;;;;;4994367;28;20185;-56
2022/06/06 03:02:22;;;;;;;11.35;8.68;;;16.50;99.90;;;;;;4994322;28;20173;-56
2022/06/06 03:04:48;;;;;;;14.80;9.70;;;16.50;99.90;;;;;;4993998;28;20194;-55
2022/06/06 03:07:53;;;;;;;13.50;8.05;;;16.50;99.90;;;;;;4993945;28;20179;-55
2022/06/06 03:10:38;;;;;;;12.63;8.77;;;16.60;99.90;;;;;;4953154;29;20184;-55
2022/06/06 03:13:31;;;;;;;14.43;8.70;;;16.60;99.90;;;;;;4991293;28;20189;-55
2022/06/06 03:22:43;;;;;;;10.55;8.40;;;16.50;99.90;;;;;;4993650;28;20295;-55
2022/06/06 03:25:12;;;;;;;14.18;9.45;;;16.50;99.90;;;;;;4993243;28;20173;-54
2022/06/06 03:27:47;;;;;;;13.68;9.52;;;16.50;99.90;;;;;;4993552;28;20169;-55
2022/06/06 03:30:32;;;;;;;12.43;8.23;;;16.60;99.90;;;;;;4993460;28;20213;-55
2022/06/06 03:33:16;;;;;;;11.35;8.60;;;16.50;99.90;;;;;;4993696;28;20211;-55
2022/06/06 03:35:56;;;;;;;12.20;8.90;;;16.40;99.90;;;;;;4993446;28;20173;-55
2022/06/06 03:38:40;;;;;;;10.57;8.73;;;16.40;99.90;;;;;;4993305;28;20199;-54
2022/06/06 03:41:29;;;;;;;9.90;7.78;;;16.50;99.90;;;;;;4993598;28;20172;-55
2022/06/06 03:44:34;;;;;;;12.02;8.38;;;16.50;99.90;;;;;;4993592;28;20189;-56
2022/06/06 03:47:15;;;;;;;10.25;8.00;;;16.50;99.90;;;;;;4977681;28;20291;-55
2022/06/06 03:50:08;;;;;;;9.60;7.47;;;16.40;99.90;;;;;;4993377;28;20189;-55
2022/06/06 03:52:47;;;;;;;13.38;8.30;;;16.40;99.90;;;;;;4993261;28;20295;-55
2022/06/06 03:55:15;;;;;;;10.30;7.78;;;16.40;99.90;;;;;;4993087;28;20709;-55
2022/06/06 03:57:43;;;;;;;12.68;8.90;;;16.40;99.90;;;;;;4993021;28;20574;-55
2022/06/06 04:00:12;;;;;;;12.63;8.32;;;16.50;99.90;;;;;;4993218;28;20232;-55
2022/06/06 04:02:41;;;;;;;10.68;7.72;;;16.40;99.90;;;;;;4992746;28;20255;-55
2022/06/06 04:05:11;;;;;;;9.88;7.97;;;16.50;99.90;;;;;;4992904;28;20649;-55
2022/06/06 04:07:37;;;;;;;8.05;6.97;;;16.40;99.90;;;;;;4993121;28;20537;-55
2022/06/06 04:10:04;;;;;;;10.38;7.68;;;16.40;99.90;;;;;;4992816;28;20179;-55
2022/06/06 04:12:53;;;;;;;10.30;7.25;;;16.30;99.90;;;;;;4992736;28;20307;-55
2022/06/06 04:15:28;;;;;;;11.98;7.88;;;16.30;99.90;;;;;;4992702;28;20208;-55
2022/06/06 04:17:59;;;;;;;10.35;7.88;;;16.30;99.90;;;;;;4993208;28;20183;-55
2022/06/06 04:20:35;;;;;;;11.43;8.10;;;16.30;99.90;;;;;;4993045;28;20649;-55
2022/06/06 04:23:16;;;;;;;9.60;7.40;;;16.20;99.90;;;;;;4992685;28;20177;-55
2022/06/06 04:25:50;;;;;;;10.23;7.80;;;16.30;99.90;;;;;;4992688;28;20175;-55
2022/06/06 04:28:31;;;;;;;12.23;7.57;;;16.30;99.90;;;;;;4992664;28;20188;-55
2022/06/06 04:31:18;;;;;;;12.80;8.95;;;16.30;99.90;;;;;;4992533;28;20200;-55
2022/06/06 04:34:11;;;;;;;11.43;8.85;;;16.20;99.90;;;;;;4992507;28;20173;-55
2022/06/06 04:36:45;;;;;;;14.50;8.63;;;16.30;99.90;;;;;;4992814;28;20180;-55
2022/06/06 04:39:49;;;;;;;11.00;7.93;;;16.30;99.90;;;;;;4992529;28;20169;-55
2022/06/06 04:42:31;;;;;;;12.05;8.25;;;16.30;99.90;;;;;;4951779;29;20169;-55
2022/06/06 04:45:12;;;;;;;14.13;8.50;;;16.30;99.90;;;;;;4988751;28;20181;-55
2022/06/06 04:47:40;;;;;;;10.32;8.18;;;16.30;99.90;;;;;;4992300;28;20220;-55
2022/06/06 04:50:16;;;;;;;11.38;7.82;;;16.30;99.90;;;;;;4992431;28;20259;-56
2022/06/06 04:52:47;;;;;;;11.60;8.02;;;16.30;99.90;;;;;;4992330;28;20204;-56
2022/06/06 04:55:15;;;;;;;10.75;7.85;;;16.30;99.90;;;;;;4992236;28;20173;-55
2022/06/06 04:57:46;;;;;;;11.75;8.88;;;16.30;99.90;;;;;;4992396;28;20169;-55
2022/06/06 05:00:13;;;;;;;10.65;8.30;;;16.40;99.90;;;;;;4992409;28;20165;-56
2022/06/06 05:02:39;;;;;;;10.85;7.53;;;16.40;99.90;;;;;;4992396;28;20169;-55
2022/06/06 05:05:05;;;;;;;7.22;6.50;;;16.40;99.90;;;;;;4992251;28;20173;-55
2022/06/06 05:08:03;;;;;;;9.90;6.78;;;16.20;99.90;;;;;;4992196;28;20630;-55
2022/06/06 05:10:39;;;;;;;9.88;5.93;;;16.30;99.90;;;;;;4992448;28;20256;-56
2022/06/06 05:13:12;;;;;;;8.63;6.68;;;16.30;99.90;;;;;;4992238;28;20165;-56
2022/06/06 05:15:46;;;;;;;8.20;5.88;;;16.30;99.90;;;;;;4995629;28;20256;-55
2022/06/06 05:18:36;;;;;;;7.82;5.63;;;16.30;99.90;;;;;;4996009;28;20250;-56
2022/06/06 05:21:40;;;;;;;5.70;5.10;;;16.30;99.90;;;;;;4996214;28;20172;-55
2022/06/06 05:24:32;;;;;;;8.38;5.57;;;16.40;99.90;;;;;;4995668;28;20175;-55
2022/06/06 05:27:16;;;;;;;6.43;5.35;;;16.30;99.90;;;;;;4995659;28;20255;-55
2022/06/06 05:30:22;;;;;;;8.05;5.55;;;16.30;99.90;;;;;;4994896;28;20547;-55
2022/06/06 05:33:07;;;;;;;7.68;5.63;;;16.40;99.90;;;;;;4994607;28;20226;-56
2022/06/06 05:35:40;;;;;;;6.78;4.93;;;16.50;99.90;;;;;;4994625;28;20697;-56
2022/06/06 05:38:35;;;;;;;7.35;4.85;;;16.50;99.90;;;;;;4994553;28;20172;-56
2022/06/06 05:41:19;;;;;;;8.10;4.80;;;16.70;99.90;;;;;;4994525;28;20244;-55
2022/06/06 05:43:56;;;;;;;6.57;4.65;;;16.80;99.90;;;;;;4994426;28;20169;-56
2022/06/06 05:46:40;;;;;;;8.07;4.85;;;16.90;99.90;;;;;;4995513;28;20231;-56
2022/06/06 05:49:28;;;;;;;7.95;4.32;;;17.00;99.90;;;;;;4995259;28;20173;-55
2022/06/06 05:52:05;;;;;;;5.20;4.13;;;17.10;99.90;;;;;;4995430;28;20573;-56
2022/06/06 05:54:30;;;;;;;6.63;4.93;;;17.20;99.90;;;;;;4995283;28;20164;-55
2022/06/06 05:57:32;;;;;;;5.05;4.40;;;17.20;99.90;;;;;;4995059;28;20504;-56
2022/06/06 06:00:16;;;;;;;7.82;4.72;;;17.00;99.90;;;;;;4995094;28;20176;-56
2022/06/06 06:03:12;;;;;;;5.88;4.32;;;17.20;99.90;;;;;;4995107;28;20200;-56
2022/06/06 06:05:50;;;;;;;5.45;4.72;;;17.30;99.90;;;;;;4995133;28;20169;-56
2022/06/06 06:08:39;;;;;;;6.03;4.18;;;17.40;99.90;;;;;;4994907;28;20648;-56
2022/06/06 06:11:23;;;;;;;6.32;4.18;;;17.50;99.90;;;;;;4994886;28;20204;-55
2022/06/06 06:14:05;;;;;;;4.78;4.20;;;17.60;99.90;;;;;;4994958;28;20177;-56
2022/06/06 06:16:34;;;;;;;4.88;3.88;;;17.60;99.90;;;;;;4994933;28;20188;-55
2022/06/06 06:19:12;;;;;;;5.72;3.38;;;17.70;99.90;;;;;;4994838;28;20204;-54
2022/06/06 06:21:45;;;;;;;3.78;3.25;;;17.60;99.90;;;;;;4994859;28;20196;-55
2022/06/06 06:24:26;;;;;;;6.32;3.15;;;17.50;99.90;;;;;;4994852;28;20173;-55
2022/06/06 06:26:54;;;;;;;3.75;2.85;;;17.30;99.90;;;;;;4995019;28;20177;-55
2022/06/06 06:29:20;;;;;;;5.95;2.50;;;17.30;99.90;;;;;;4994694;28;20583;-55
2022/06/06 06:32:23;;;;;;;3.13;2.78;;;17.10;99.90;;;;;;4994541;28;20204;-55
2022/06/06 06:35:01;;;;;;;6.13;3.08;;;17.00;99.90;;;;;;4994546;28;20172;-55
2022/06/06 06:37:47;;;;;;;4.63;3.45;;;17.10;99.90;;;;;;4994793;28;20178;-55
2022/06/06 06:40:25;;;;;;;4.00;2.63;;;17.00;99.90;;;;;;4994542;28;20173;-55
2022/06/06 06:43:29;;;;;;;2.83;2.40;;;17.10;99.90;;;;;;4977223;28;20634;-55
2022/06/06 06:46:03;;;;;;;2.75;2.42;;;17.10;99.90;;;;;;4994722;28;20168;-55
2022/06/06 06:48:36;;;;;;;4.15;2.30;;;17.30;99.90;;;;;;4976814;28;20220;-55
2022/06/06 06:51:22;;;;;;;3.53;2.20;;;17.50;99.90;;;;;;4994496;28;20609;-55
2022/06/06 06:54:20;;;;;;;3.25;1.83;;;17.60;99.90;;;;;;4994215;28;20184;-55
2022/06/06 06:56:52;;;;;;;2.70;1.92;;;17.60;99.90;;;;;;4994172;28;20165;-55
2022/06/06 06:59:45;;;;;;;2.40;2.20;;;17.70;99.90;;;;;;4994374;28;20259;-55
2022/06/06 07:11:14;;;;;;;2.58;1.63;;;17.90;99.90;;;;;;4994464;28;20264;-55
2022/06/06 07:14:05;;;;;;;3.97;1.77;;;18.00;99.90;;;;;;4993857;28;20161;-55
2022/06/06 07:16:35;;;;;;;2.05;1.65;;;18.00;99.90;;;;;;4975398;28;20641;-55
2022/06/06 07:19:12;;;;;;;1.70;1.58;;;18.00;99.90;;;;;;4993823;28;20173;-56
2022/06/06 07:21:39;;;;;;;3.25;2.00;;;17.90;99.90;;;;;;4993577;28;20565;-56
2022/06/06 07:24:11;;;;;;;4.28;1.80;;;17.80;99.90;;;;;;4993618;28;20173;-56
2022/06/06 07:26:39;;;;;;;5.50;2.05;;;18.00;99.90;;;;;;4993574;28;20231;-56
2022/06/06 07:29:06;;;;;;;2.70;1.90;;;18.10;99.90;;;;;;4993852;28;20265;-55
2022/06/06 07:31:42;;;;;;;1.60;1.50;;;18.00;99.90;;;;;;4993389;28;20579;-55
2022/06/06 07:34:15;;;;;;;1.98;1.70;;;18.20;99.90;;;;;;4993416;28;20175;-55
2022/06/06 07:36:44;;;;;;;3.05;1.50;;;18.10;99.90;;;;;;4993041;28;20579;-55
2022/06/06 07:39:45;;;;;;;3.50;1.83;;;18.10;99.90;;;;;;4993323;28;20172;-55
2022/06/06 07:42:10;;;;;;;4.03;1.60;;;18.00;99.90;;;;;;4993207;28;20171;-56
2022/06/06 07:45:02;;;;;;;1.92;1.67;;;18.00;99.90;;;;;;4993532;28;20537;-55
2022/06/06 07:47:38;;;;;;;1.88;1.67;;;18.30;99.90;;;;;;4986059;28;20587;-55
2022/06/06 07:50:12;;;;;;;4.68;1.63;;;18.50;99.90;;;;;;4993114;28;20164;-56
2022/06/06 07:52:50;;;;;;;2.45;1.50;;;18.50;99.90;;;;;;4993131;28;20203;-55
2022/06/06 07:55:38;;;;;;;2.17;1.73;;;18.40;99.90;;;;;;4993102;28;20215;-55
2022/06/06 07:58:08;;;;;;;2.25;1.80;;;18.40;99.90;;;;;;4993233;28;20176;-56
2022/06/06 08:00:34;;;;;;;2.35;1.50;;;18.60;99.90;;;;;;4993020;28;20161;-56
2022/06/06 08:03:23;;;;;;;1.98;1.80;;;18.60;99.90;;;;;;4992994;28;20181;-56
2022/06/06 08:06:10;;;;;;;3.65;1.60;;;18.70;99.90;;;;;;4993084;28;20180;-56
2022/06/06 08:08:55;;;;;;;2.30;1.50;;;18.90;99.90;;;;;;4992748;28;20171;-56
2022/06/06 08:11:42;;;;;;;1.90;1.40;;;19.00;99.90;;;;;;4993161;28;20208;-56
2022/06/06 08:14:19;;;;;;;1.90;1.55;;;19.00;99.90;;;;;;4992792;28;20173;-56
2022/06/06 08:17:06;;;;;;;2.33;1.40;;;19.20;99.90;;;;;;4975444;28;20173;-55
2022/06/06 08:20:01;;;;;;;1.45;1.35;;;19.40;99.90;;;;;;4992739;28;20271;-55
2022/06/06 08:22:29;;;;;;;3.67;1.83;;;19.50;99.90;;;;;;4992349;28;20243;-55
2022/06/06 08:24:58;;;;;;;3.47;1.60;;;19.50;99.90;;;;;;4992660;28;20657;-55
2022/06/06 08:27:26;;;;;;;2.08;1.45;;;19.50;99.90;;;;;;4992923;28;20231;-56
2022/06/06 08:29:52;;;;;;;1.42;1.33;;;19.50;99.90;;;;;;4993037;28;20173;-56
2022/06/06 08:32:18;;;;;;;1.90;1.38;;;19.60;99.90;;;;;;4992452;28;20207;-56
2022/06/06 08:34:44;;;;;;;2.55;1.40;;;19.80;99.90;;;;;;4992799;28;20183;-56
2022/06/06 08:37:40;;;;;;;1.58;1.40;;;19.80;99.90;;;;;;4992481;28;20169;-56
2022/06/06 08:40:39;;;;;;;1.83;1.27;;;20.10;99.90;;;;;;4992834;28;20526;-56
2022/06/06 08:43:22;;;;;;;2.10;1.35;;;20.00;99.90;;;;;;4992390;28;20173;-55
2022/06/06 08:46:11;;;;;;;1.48;1.10;;;20.30;99.90;;;;;;4992548;28;20161;-56
2022/06/06 08:48:50;;;;;;;1.10;1.00;;;20.50;99.90;;;;;;4992368;28;20248;-56
2022/06/06 08:51:24;;;;;;;1.52;1.40;;;20.10;99.90;;;;;;4996361;28;20210;-56
2022/06/06 08:54:23;;;;;;;1.50;1.40;;;20.20;99.90;;;;;;4996770;28;20168;-56
2022/06/06 08:57:14;;;;;;;1.77;1.33;;;20.10;99.90;;;;;;4996904;28;20180;-56
2022/06/06 09:00:16;;;;;;;3.85;1.38;;;20.00;99.90;;;;;;4996291;28;20256;-56
2022/06/06 09:03:00;;;;;;;3.53;1.20;;;19.70;99.90;;;;;;4996200;28;20172;-56
2022/06/06 09:06:10;;;;;;;1.52;1.30;;;19.80;99.90;;;;;;4996125;28;20169;-55
2022/06/06 09:08:56;;;;;;;2.60;1.35;;;19.90;99.90;;;;;;4993944;28;20235;-56
2022/06/06 09:12:00;;;;;;;2.60;1.60;;;20.00;99.90;;;;;;4996646;28;20201;-55
2022/06/06 09:15:00;;;;;;;1.42;1.30;;;19.90;99.90;;;;;;4995582;28;20267;-56
2022/06/06 09:17:52;;;;;;;2.13;1.25;;;20.00;99.90;;;;;;4995990;28;20168;-56
2022/06/06 09:20:55;;;;;;;1.73;1.60;;;19.80;99.90;;;;;;4995960;28;20169;-56
2022/06/06 09:23:30;;;;;;;2.25;1.27;;;19.80;99.90;;;;;;4978662;28;20512;-56
2022/06/06 09:26:21;;;;;;;2.45;1.50;;;19.90;99.90;;;;;;4995777;28;20186;-55
2022/06/06 09:29:29;;;;;;;1.42;1.33;;;19.80;99.90;;;;;;4996039;28;20176;-56
2022/06/06 09:32:00;;;;;;;3.03;1.25;;;19.80;99.90;;;;;;4995643;28;20201;-55
2022/06/06 09:34:32;;;;;;;1.35;1.20;;;20.00;99.90;;;;;;4995902;28;20177;-55
2022/06/06 09:36:57;;;;;;;1.98;1.42;;;20.20;99.90;;;;;;4995703;28;20653;-55
2022/06/06 09:39:40;;;;;;;2.67;1.10;;;20.40;99.90;;;;;;4995920;28;20200;-55
2022/06/06 09:42:21;;;;;;;1.50;1.00;;;20.80;99.90;;;;;;4995572;28;20171;-55
2022/06/06 09:45:09;;;;;;;1.95;1.10;;;20.90;99.90;;;;;;4995763;28;20169;-55
2022/06/06 09:47:59;;;;;;;1.30;1.20;;;20.60;99.90;;;;;;4994777;28;20220;-55
2022/06/06 09:50:27;;;;;;;4.50;1.27;;;20.60;99.90;;;;;;4976875;28;20164;-55
2022/06/06 09:53:37;;;;;;;2.40;1.30;;;20.30;99.90;;;;;;4976949;28;20219;-55
2022/06/06 09:59:29;;;;;;;1.98;1.35;;;20.40;99.90;;;;;;4994144;28;20268;-56
2022/06/06 10:02:15;;;;;;;1.58;1.23;;;20.20;99.90;;;;;;4993860;28;20681;-55
2022/06/06 10:04:53;;;;;;;1.20;1.17;;;20.00;99.90;;;;;;4994247;28;20173;-55
2022/06/06 10:07:18;;;;;;;1.38;1.27;;;19.80;99.90;;;;;;4994364;28;20499;-55
2022/06/06 10:10:21;;;;;;;2.47;1.20;;;19.90;99.90;;;;;;4994009;28;20175;-55
2022/06/06 10:12:59;;;;;;;2.20;1.30;;;20.00;99.90;;;;;;4993797;28;20216;-55
2022/06/06 10:15:33;;;;;;;2.65;1.30;;;20.20;99.90;;;;;;4993886;28;20248;-55
2022/06/06 10:18:08;;;;;;;2.80;1.10;;;20.00;99.90;;;;;;4993863;28;20258;-55
2022/06/06 10:20:52;;;;;;;3.10;1.60;;;20.00;99.90;;;;;;4993777;28;20176;-55
2022/06/06 10:23:42;;;;;;;2.22;1.33;;;20.10;99.90;;;;;;4993949;28;20600;-55
2022/06/06 10:26:40;;;;;;;4.82;1.92;;;20.10;99.90;;;;;;4993641;28;20720;-55
2022/06/06 10:30:10;;;;;;;1.20;1.10;;;20.20;99.90;;;;;;4993617;28;20180;-55
2022/06/06 10:32:38;;;;;;;5.28;1.20;;;20.20;99.90;;;;;;4993293;28;20239;-56
2022/06/06 10:35:31;;;;;;;5.38;1.63;;;20.00;99.90;;;;;;4993541;28;20264;-56
2022/06/06 10:38:17;;;;;;;4.70;1.20;;;19.90;99.90;;;;;;4993507;28;20220;-56
2022/06/06 10:40:56;;;;;;;3.42;1.20;;;20.00;99.90;;;;;;4993602;28;20172;-55
2022/06/06 10:44:13;;;;;;;1.40;1.30;;;20.20;99.90;;;;;;4993391;28;20177;-55
2022/06/06 10:47:09;;;;;;;3.43;1.17;;;20.10;99.90;;;;;;4939611;28;1071715;-55
2022/06/06 10:49:50;;;;;;;1.33;1.02;;;20.10;99.90;;;;;;4994427;28;20657;-55
2022/06/06 10:52:46;;;;;;;7.47;1.50;;;20.20;99.90;;;;;;4977666;28;20212;-55
2022/06/06 10:55:36;;;;;;;1.23;1.08;;;20.20;99.90;;;;;;4994233;28;20222;-56
2022/06/06 10:58:30;;;;;;;1.33;1.23;;;20.10;99.90;;;;;;4993700;28;20200;-56
2022/06/06 11:01:05;;;;;;;1.38;1.17;;;20.50;99.90;;;;;;4994123;28;20231;-55
2022/06/06 11:04:05;;;;;;;1.75;1.10;;;20.60;99.90;;;;;;4993961;28;20660;-56
2022/06/06 11:06:36;;;;;;;1.90;1.23;;;20.70;99.90;;;;;;4993949;28;20177;-55
2022/06/06 11:09:33;;;;;;;1.30;1.20;;;20.90;99.90;;;;;;4993948;28;20187;-56
2022/06/06 11:12:35;;;;;;;1.35;1.08;;;21.40;99.90;;;;;;4992991;28;20731;-56
2022/06/06 11:15:03;;;;;;;1.23;1.10;;;21.10;99.90;;;;;;4993839;28;20531;-56
2022/06/06 11:17:49;;;;;;;1.63;1.02;;;21.40;99.90;;;;;;4993822;28;20161;-55
2022/06/06 11:20:36;;;;;;;2.88;1.23;;;21.60;99.90;;;;;;4992653;28;20172;-56
2022/06/06 11:23:23;;;;;;;3.38;1.33;;;21.30;99.90;;;;;;4993388;28;20660;-56
2022/06/06 11:26:08;;;;;;;1.85;1.20;;;21.40;99.90;;;;;;4993352;28;20212;-56
2022/06/06 11:28:41;;;;;;;3.35;1.50;;;21.70;99.90;;;;;;4993388;28;20259;-56
2022/06/06 11:31:15;;;;;;;1.15;1.05;;;22.00;99.90;;;;;;4993247;28;20192;-56
2022/06/06 11:34:00;;;;;;;1.50;1.20;;;21.80;99.90;;;;;;4993114;28;20184;-56
2022/06/06 11:36:53;;;;;;;3.95;1.40;;;22.00;99.90;;;;;;4993008;28;20172;-56
2022/06/06 11:39:19;;;;;;;6.10;1.42;;;22.50;99.90;;;;;;4993344;28;20177;-56
2022/06/06 11:42:09;;;;;;;1.40;1.30;;;22.80;99.90;;;;;;4992794;28;20187;-56
2022/06/06 11:45:02;;;;;;;2.03;1.20;;;22.90;99.90;;;;;;4993049;28;20259;-57
2022/06/06 11:48:05;;;;;;;1.88;1.30;;;22.60;99.90;;;;;;4993250;28;20224;-56
2022/06/06 11:50:55;;;;;;;2.88;1.20;;;22.70;99.90;;;;;;4993093;28;20168;-56
2022/06/06 11:53:24;;;;;;;2.10;1.50;;;23.10;99.90;;;;;;4993508;28;20240;-56
2022/06/06 11:56:09;;;;;;;2.60;1.40;;;23.00;99.90;;;;;;4993401;28;20177;-55
2022/06/06 11:58:58;;;;;;;1.25;1.15;;;22.90;99.90;;;;;;4975669;28;20169;-56
2022/06/06 12:02:19;;;;;;;1.92;1.33;;;22.70;99.90;;;;;;4993164;28;20661;-56
2022/06/06 12:05:04;;;;;;;6.13;1.92;;;22.70;99.90;;;;;;4949594;28;20197;-56
2022/06/06 12:08:07;;;;;;;1.83;1.52;;;23.20;99.90;;;;;;4965398;28;20660;-56
2022/06/06 12:10:39;;;;;;;1.42;1.33;;;23.50;99.90;;;;;;4992847;28;20517;-56
2022/06/06 12:13:20;;;;;;;2.90;1.50;;;22.80;99.90;;;;;;4975816;28;20239;-56
2022/06/06 12:16:18;;;;;;;1.50;1.30;;;22.40;99.90;;;;;;4992710;28;20183;-56
2022/06/06 12:18:52;;;;;;;2.45;1.52;;;22.30;99.90;;;;;;4940040;28;20190;-56
2022/06/06 12:21:58;;;;;;;1.65;1.20;;;22.20;99.90;;;;;;4992790;28;20180;-56
2022/06/06 12:24:45;;;;;;;3.03;1.35;;;22.00;99.90;;;;;;4944598;28;20267;-56
2022/06/06 12:27:22;;;;;;;2.17;1.52;;;22.20;99.90;;;;;;4992578;28;20215;-56
2022/06/06 12:30:39;;;;;;;2.38;1.40;;;21.90;99.90;;;;;;4992843;28;20164;-56
2022/06/06 12:33:12;;;;;;;2.78;1.30;;;22.30;99.90;;;;;;4959837;28;20227;-56
2022/06/06 12:35:46;;;;;;;2.38;1.23;;;22.30;99.90;;;;;;4992715;28;20184;-56
2022/06/06 12:38:36;;;;;;;6.18;1.20;;;22.30;99.90;;;;;;4992468;28;20169;-56
2022/06/06 12:41:13;;;;;;;1.13;1.00;;;22.40;99.90;;;;;;4992529;28;20259;-55
2022/06/06 12:43:59;;;;;;;1.23;1.13;;;22.50;99.90;;;;;;4992388;28;20165;-55
2022/06/06 12:47:01;;;;;;;1.75;1.20;;;22.50;99.90;;;;;;4992382;28;20223;-54
2022/06/06 12:49:39;;;;;;;3.13;1.45;;;22.30;99.90;;;;;;4969908;28;20188;-55
2022/06/06 12:52:21;;;;;;;1.92;0.90;;;22.30;99.90;;;;;;4992649;28;20219;-55
2022/06/06 12:58:16;;;;;;;1.10;1.00;;;22.60;99.90;;;;;;4969773;28;20191;-55
2022/06/06 13:04:15;;;;;;;2.15;1.20;;;23.00;99.90;;;;;;4992639;28;20583;-55
2022/06/06 13:07:02;;;;;;;2.65;1.20;;;22.90;99.90;;;;;;4992261;28;20172;-55
2022/06/06 13:09:33;;;;;;;1.65;1.20;;;23.10;99.90;;;;;;4992458;28;20215;-55
2022/06/06 13:12:07;;;;;;;1.83;0.93;;;22.80;99.90;;;;;;4992256;28;20205;-55
2022/06/06 13:15:13;;;;;;;0.98;0.90;;;22.40;99.90;;;;;;4992498;28;20180;-55
2022/06/06 13:18:16;;;;;;;1.95;1.30;;;22.80;99.90;;;;;;4992208;28;20638;-56
2022/06/06 13:20:58;;;;;;;3.08;1.00;;;22.90;99.90;;;;;;4992281;28;20173;-55
2022/06/06 13:23:42;;;;;;;3.13;1.20;;;23.10;99.90;;;;;;4992202;28;20177;-55
2022/06/06 13:26:35;;;;;;;2.95;1.10;;;23.00;99.90;;;;;;4992080;28;20171;-55
2022/06/06 13:29:01;;;;;;;1.00;1.00;;;23.00;99.90;;;;;;4992166;28;20173;-56
2022/06/06 13:31:50;;;;;;;1.58;0.90;;;22.90;99.90;;;;;;4992053;28;20215;-56
2022/06/06 13:34:34;;;;;;;1.45;1.30;;;22.90;99.90;;;;;;4991872;28;20669;-56
2022/06/06 13:37:34;;;;;;;2.65;1.50;;;23.20;99.90;;;;;;4995718;28;20173;-56
2022/06/06 13:40:19;;;;;;;1.70;1.30;;;23.10;99.90;;;;;;4995729;28;20179;-55
2022/06/06 13:42:57;;;;;;;1.10;1.00;;;23.10;99.90;;;;;;4995674;28;20537;-55
2022/06/06 13:45:47;;;;;;;5.55;1.08;;;23.00;99.90;;;;;;4995570;28;20207;-55
2022/06/06 13:48:47;;;;;;;0.70;0.70;;;22.90;99.90;;;;;;4995404;28;20271;-56
2022/06/06 13:51:20;;;;;;;2.90;1.20;;;22.90;99.90;;;;;;4995436;28;20196;-56
2022/06/06 13:53:52;;;;;;;3.08;0.90;;;22.70;99.90;;;;;;4995307;28;20195;-56
2022/06/06 13:56:28;;;;;;;2.28;1.17;;;22.40;99.90;;;;;;4996044;28;20168;-56
2022/06/06 13:59:15;;;;;;;2.05;1.10;;;22.30;99.90;;;;;;4995303;28;20183;-56
2022/06/06 14:01:48;;;;;;;1.63;1.20;;;22.10;99.90;;;;;;4995222;28;20172;-56
2022/06/06 14:04:36;;;;;;;2.50;1.13;;;22.40;99.90;;;;;;4995537;28;20174;-56
2022/06/06 14:08:03;;;;;;;2.60;1.15;;;22.80;99.90;;;;;;4995150;28;20256;-56
2022/06/06 14:10:56;;;;;;;1.50;1.02;;;22.90;99.30;;;;;;4902400;28;20188;-56
2022/06/06 14:13:34;;;;;;;1.65;1.15;;;22.90;98.90;;;;;;4987458;28;20268;-55
2022/06/06 14:16:01;;;;;;;1.40;1.00;;;23.30;99.90;;;;;;4994926;28;20211;-56